Time,TemperatureF,DewpointF,PressureIn,WindDirection,WindDirectionDegrees,WindSpeedMPH,WindSpeedGustMPH,Humidity,HourlyPrecipIn,Conditions,Clouds,dailyrainin,SoftwareType,DateUTC
2013-01-31 00:02:00,46.5,45.1,30.43,WSW,244,0.0,2.0,95,0.00,,,0.00,Wunderground v.1.15,2013-01-31 08:02:00,
2013-01-31 00:07:00,46.6,45.2,30.43,SSE,157,0.0,2.0,95,0.00,,,0.00,Wunderground v.1.15,2013-01-31 08:07:00,
2013-01-31 00:13:00,46.6,45.5,30.43,SSE,157,1.0,1.0,96,0.00,,,0.00,Wunderground v.1.15,2013-01-31 08:13:00,
2013-01-31 00:18:00,46.6,45.5,30.44,SSE,157,0.0,2.0,96,0.00,,,0.00,Wunderground v.1.15,2013-01-31 08:18:00,
2013-01-31 00:24:00,46.6,45.5,30.44,SSE,157,0.0,1.0,96,0.00,,,0.00,Wunderground v.1.15,2013-01-31 08:24:00,
2013-01-31 00:29:00,46.5,45.4,30.44,SSE,157,0.0,1.0,96,0.00,,,0.00,Wunderground v.1.15,2013-01-31 08:29:00,
2013-01-31 00:34:00,46.5,45.4,30.44,SSE,157,0.0,0.0,96,0.00,,,0.00,Wunderground v.1.15,2013-01-31 08:34:00,
2013-01-31 00:40:00,46.5,45.1,30.44,SSE,157,0.0,0.0,95,0.00,,,0.00,Wunderground v.1.15,2013-01-31 08:40:00,
2013-01-31 00:45:00,46.5,45.4,30.44,SSE,157,0.0,0.0,96,0.00,,,0.00,Wunderground v.1.15,2013-01-31 08:45:00,
2013-01-31 00:51:00,46.5,45.4,30.44,SSE,157,0.0,0.0,96,0.00,,,0.00,Wunderground v.1.15,2013-01-31 08:51:00,
2013-01-31 00:56:00,46.4,45.3,30.44,SSE,157,0.0,0.0,96,0.00,,,0.00,Wunderground v.1.15,2013-01-31 08:56:00,
2013-01-31 01:02:00,46.4,45.3,30.44,SSE,157,0.0,0.0,96,0.00,,,0.01,Wunderground v.1.15,2013-01-31 09:02:00,
2013-01-31 01:07:00,46.3,45.2,30.44,SSE,157,0.0,0.0,96,0.00,,,0.01,Wunderground v.1.15,2013-01-31 09:07:00,
2013-01-31 10:01:00,44.1,43.0,30.42,WNW,291,0.0,0.0,96,0.00,,,0.01,Wunderground v.1.15,2013-01-31 18:01:00,
2013-01-31 10:07:00,44.1,43.0,30.42,WNW,291,0.0,0.0,96,0.00,,,0.01,Wunderground v.1.15,2013-01-31 18:07:00,
2013-01-31 10:12:00,44.2,43.1,30.42,WNW,291,0.0,0.0,96,0.00,,,0.01,Wunderground v.1.15,2013-01-31 18:12:00,
2013-01-31 10:17:00,44.5,43.4,30.42,WNW,291,0.0,0.0,96,0.00,,,0.01,Wunderground v.1.15,2013-01-31 18:17:00,
2013-01-31 10:23:00,44.8,43.7,30.42,WNW,291,0.0,0.0,96,0.00,,,0.01,Wunderground v.1.15,2013-01-31 18:23:00,
2013-01-31 10:28:00,45.0,43.9,30.42,WNW,291,0.0,0.0,96,0.00,,,0.01,Wunderground v.1.15,2013-01-31 18:28:00,
2013-01-31 10:33:00,45.0,43.9,30.42,WNW,291,0.0,2.0,96,0.00,,,0.01,Wunderground v.1.15,2013-01-31 18:33:00,
2013-01-31 10:38:00,45.1,44.0,30.42,WNW,291,0.0,2.0,96,0.00,,,0.01,Wunderground v.1.15,2013-01-31 18:38:00,
2013-01-31 10:44:00,45.1,44.0,30.43,WNW,291,0.0,1.0,96,0.00,,,0.01,Wunderground v.1.15,2013-01-31 18:44:00,
2013-01-31 10:50:00,45.3,44.2,30.42,WNW,291,0.0,0.0,96,0.00,,,0.01,Wunderground v.1.15,2013-01-31 18:50:00,
2013-01-31 10:55:00,45.3,44.2,30.42,WNW,291,0.0,1.0,96,0.00,,,0.01,Wunderground v.1.15,2013-01-31 18:55:00,
2013-01-31 11:00:00,45.4,44.3,30.42,WNW,291,0.0,0.0,96,0.00,,,0.01,Wunderground v.1.15,2013-01-31 19:00:00,
2013-01-31 11:05:00,45.6,44.5,30.42,WNW,291,0.0,0.0,96,0.00,,,0.01,Wunderground v.1.15,2013-01-31 19:05:00,
2013-01-31 11:10:00,45.5,44.4,30.42,WNW,291,0.0,0.0,96,0.00,,,0.01,Wunderground v.1.15,2013-01-31 19:10:00,
2013-01-31 11:16:00,45.1,44.0,30.41,WNW,291,0.0,0.0,96,0.00,,,0.01,Wunderground v.1.15,2013-01-31 19:16:00,
2013-01-31 11:21:00,44.8,43.7,30.41,WNW,291,0.0,0.0,96,0.00,,,0.01,Wunderground v.1.15,2013-01-31 19:21:00,
2013-01-31 11:26:00,44.8,43.7,30.41,WNW,291,0.0,0.0,96,0.00,,,0.02,Wunderground v.1.15,2013-01-31 19:26:00,
2013-01-31 11:31:00,45.0,43.9,30.41,WNW,291,0.0,0.0,96,0.00,,,0.02,Wunderground v.1.15,2013-01-31 19:31:00,
2013-01-31 11:36:00,45.3,44.2,30.40,WNW,291,0.0,0.0,96,0.00,,,0.02,Wunderground v.1.15,2013-01-31 19:36:00,
2013-01-31 11:41:00,45.5,44.4,30.41,WNW,291,0.0,0.0,96,0.00,,,0.02,Wunderground v.1.15,2013-01-31 19:41:00,
2013-01-31 11:47:00,45.8,44.7,30.40,WNW,291,0.0,0.0,96,0.00,,,0.02,Wunderground v.1.15,2013-01-31 19:47:00,
2013-01-31 11:52:00,46.0,44.9,30.40,WNW,291,0.0,1.0,96,0.00,,,0.02,Wunderground v.1.15,2013-01-31 19:52:00,
2013-01-31 11:57:00,46.1,45.0,30.40,WNW,291,0.0,2.0,96,0.00,,,0.02,Wunderground v.1.15,2013-01-31 19:57:00,
2013-01-31 12:03:00,46.2,45.1,30.39,WNW,291,1.0,1.0,96,0.00,,,0.02,Wunderground v.1.15,2013-01-31 20:03:00,
2013-01-31 12:08:00,46.2,45.1,30.39,WNW,291,0.0,1.0,96,0.00,,,0.02,Wunderground v.1.15,2013-01-31 20:08:00,
2013-01-31 12:13:00,46.4,45.3,30.40,WNW,291,0.0,1.0,96,0.00,,,0.02,Wunderground v.1.15,2013-01-31 20:13:00,
2013-01-31 12:18:00,46.5,45.4,30.40,WNW,291,0.0,2.0,96,0.00,,,0.02,Wunderground v.1.15,2013-01-31 20:18:00,
2013-01-31 12:24:00,46.5,45.4,30.40,WNW,291,0.0,2.0,96,0.00,,,0.02,Wunderground v.1.15,2013-01-31 20:24:00,
2013-01-31 12:29:00,46.7,45.6,30.40,WNW,291,1.0,2.0,96,0.00,,,0.02,Wunderground v.1.15,2013-01-31 20:29:00,
2013-01-31 12:34:00,46.8,45.7,30.39,WNW,291,1.0,2.0,96,0.00,,,0.02,Wunderground v.1.15,2013-01-31 20:34:00,
2013-01-31 12:39:00,46.8,45.7,30.39,WNW,291,0.0,2.0,96,0.00,,,0.02,Wunderground v.1.15,2013-01-31 20:39:00,
2013-01-31 12:44:00,47.0,45.9,30.39,WNW,291,0.0,1.0,96,0.00,,,0.02,Wunderground v.1.15,2013-01-31 20:44:00,
2013-01-31 12:49:00,47.0,45.9,30.39,WNW,291,0.0,1.0,96,0.00,,,0.02,Wunderground v.1.15,2013-01-31 20:49:00,
2013-01-31 12:55:00,46.8,45.7,30.39,WNW,291,0.0,0.0,96,0.00,,,0.02,Wunderground v.1.15,2013-01-31 20:55:00,
2013-01-31 13:00:00,46.6,45.5,30.39,WNW,291,0.0,0.0,96,0.00,,,0.02,Wunderground v.1.15,2013-01-31 21:00:00,
2013-01-31 13:05:00,46.5,45.4,30.39,WNW,291,1.0,3.0,96,0.00,,,0.02,Wunderground v.1.15,2013-01-31 21:05:00,
2013-01-31 13:10:00,46.4,45.3,30.38,WNW,291,2.0,2.0,96,0.00,,,0.02,Wunderground v.1.15,2013-01-31 21:10:00,
2013-01-31 13:15:00,46.4,45.0,30.38,ESE,115,2.0,3.0,95,0.00,,,0.02,Wunderground v.1.15,2013-01-31 21:15:00,
2013-01-31 13:20:00,46.5,45.1,30.38,ESE,115,2.0,2.0,95,0.00,,,0.02,Wunderground v.1.15,2013-01-31 21:20:00,
2013-01-31 13:25:00,46.8,45.4,30.38,ESE,117,1.0,2.0,95,0.00,,,0.02,Wunderground v.1.15,2013-01-31 21:25:00,
2013-01-31 13:31:00,47.0,45.6,30.37,ESE,109,1.0,2.0,95,0.00,,,0.02,Wunderground v.1.15,2013-01-31 21:31:00,
2013-01-31 13:36:00,47.1,45.7,30.37,ESE,115,1.0,2.0,95,0.00,,,0.02,Wunderground v.1.15,2013-01-31 21:36:00,
2013-01-31 13:41:00,47.2,45.8,30.37,ESE,103,1.0,2.0,95,0.00,,,0.02,Wunderground v.1.15,2013-01-31 21:41:00,
2013-01-31 13:47:00,47.3,45.9,30.37,ESE,109,1.0,2.0,95,0.00,,,0.02,Wunderground v.1.15,2013-01-31 21:47:00,
2013-01-31 13:52:00,47.3,45.9,30.37,ESE,120,1.0,3.0,95,0.00,,,0.02,Wunderground v.1.15,2013-01-31 21:52:00,
2013-01-31 13:57:00,47.4,46.0,30.37,ESE,119,1.0,3.0,95,0.00,,,0.02,Wunderground v.1.15,2013-01-31 21:57:00,
2013-01-31 14:03:00,47.4,45.8,30.36,ESE,105,1.0,3.0,94,0.00,,,0.02,Wunderground v.1.15,2013-01-31 22:03:00,
2013-01-31 14:08:00,47.4,45.8,30.36,East,92,2.0,4.0,94,0.00,,,0.02,Wunderground v.1.15,2013-01-31 22:08:00,
2013-01-31 14:13:00,47.5,45.9,30.37,East,94,2.0,4.0,94,0.00,,,0.02,Wunderground v.1.15,2013-01-31 22:13:00,
2013-01-31 14:18:00,47.6,46.0,30.37,ESE,102,2.0,4.0,94,0.00,,,0.02,Wunderground v.1.15,2013-01-31 22:18:00,
2013-01-31 14:23:00,47.7,45.8,30.36,East,96,2.0,3.0,93,0.00,,,0.02,Wunderground v.1.15,2013-01-31 22:23:00,
2013-01-31 14:28:00,47.8,45.9,30.36,ESE,103,2.0,3.0,93,0.00,,,0.02,Wunderground v.1.15,2013-01-31 22:28:00,
2013-01-31 14:33:00,47.9,46.0,30.36,ESE,121,2.0,3.0,93,0.00,,,0.02,Wunderground v.1.15,2013-01-31 22:33:00,
2013-01-31 14:38:00,48.0,46.1,30.36,East,80,1.0,3.0,93,0.00,,,0.02,Wunderground v.1.15,2013-01-31 22:38:00,
2013-01-31 14:43:00,48.0,46.1,30.36,East,80,2.0,3.0,93,0.00,,,0.02,Wunderground v.1.15,2013-01-31 22:43:00,
2013-01-31 14:49:00,48.0,45.8,30.37,East,88,2.0,3.0,92,0.00,,,0.02,Wunderground v.1.15,2013-01-31 22:49:00,
2013-01-31 14:54:00,48.2,46.0,30.37,East,91,1.0,1.0,92,0.00,,,0.02,Wunderground v.1.15,2013-01-31 22:54:00,
2013-01-31 14:59:00,48.2,46.0,30.37,East,101,1.0,4.0,92,0.00,,,0.02,Wunderground v.1.15,2013-01-31 22:59:00,
2013-01-31 15:04:00,48.3,46.1,30.37,ESE,107,2.0,2.0,92,0.00,,,0.02,Wunderground v.1.15,2013-01-31 23:04:00,
2013-01-31 15:09:00,48.3,46.1,30.36,ESE,106,1.0,3.0,92,0.00,,,0.02,Wunderground v.1.15,2013-01-31 23:09:00,
2013-01-31 15:14:00,48.3,46.1,30.37,ESE,105,1.0,2.0,92,0.00,,,0.02,Wunderground v.1.15,2013-01-31 23:14:00,
2013-01-31 15:19:00,48.2,46.0,30.36,ESE,105,1.0,2.0,92,0.00,,,0.02,Wunderground v.1.15,2013-01-31 23:19:00,
2013-01-31 15:25:00,48.1,45.9,30.37,ESE,112,1.0,3.0,92,0.00,,,0.02,Wunderground v.1.15,2013-01-31 23:25:00,
2013-01-31 15:30:00,48.2,46.0,30.36,ESE,112,2.0,2.0,92,0.00,,,0.02,Wunderground v.1.15,2013-01-31 23:30:00,
2013-01-31 15:35:00,48.2,46.0,30.36,ESE,115,1.0,3.0,92,0.00,,,0.02,Wunderground v.1.15,2013-01-31 23:35:00,
2013-01-31 15:40:00,48.4,46.2,30.36,SE,134,1.0,1.0,92,0.00,,,0.02,Wunderground v.1.15,2013-01-31 23:40:00,
2013-01-31 15:45:00,48.5,46.3,30.36,SE,134,1.0,2.0,92,0.00,,,0.02,Wunderground v.1.15,2013-01-31 23:45:00,
2013-01-31 15:51:00,48.5,46.0,30.36,SE,133,1.0,2.0,91,0.00,,,0.02,Wunderground v.1.15,2013-01-31 23:51:00,
2013-01-31 15:56:00,48.5,46.0,30.35,SE,133,0.0,2.0,91,0.00,,,0.02,Wunderground v.1.15,2013-01-31 23:56:00,
2013-01-31 16:01:00,48.5,46.0,30.35,SE,132,0.0,1.0,91,0.00,,,0.02,Wunderground v.1.15,2013-02-01 00:01:00,
2013-01-31 16:06:00,48.5,46.0,30.35,SE,132,1.0,2.0,91,0.00,,,0.02,Wunderground v.1.15,2013-02-01 00:06:00,
2013-01-31 16:12:00,48.5,46.0,30.35,SE,132,1.0,1.0,91,0.00,,,0.02,Wunderground v.1.15,2013-02-01 00:12:00,
2013-01-31 16:17:00,48.5,46.0,30.35,SE,132,0.0,1.0,91,0.00,,,0.02,Wunderground v.1.15,2013-02-01 00:17:00,
2013-01-31 16:22:00,48.5,46.0,30.35,SE,133,0.0,1.0,91,0.00,,,0.02,Wunderground v.1.15,2013-02-01 00:22:00,
2013-01-31 16:28:00,48.6,46.1,30.35,SE,133,0.0,1.0,91,0.00,,,0.02,Wunderground v.1.15,2013-02-01 00:28:00,
2013-01-31 16:33:00,48.6,46.1,30.35,SE,133,0.0,1.0,91,0.00,,,0.02,Wunderground v.1.15,2013-02-01 00:33:00,
2013-01-31 16:38:00,48.5,46.0,30.34,SE,133,0.0,1.0,91,0.00,,,0.02,Wunderground v.1.15,2013-02-01 00:38:00,
2013-01-31 16:43:00,48.5,45.7,30.35,SE,133,0.0,1.0,90,0.00,,,0.02,Wunderground v.1.15,2013-02-01 00:43:00,
2013-01-31 16:49:00,48.4,45.6,30.35,SE,138,0.0,1.0,90,0.00,,,0.02,Wunderground v.1.15,2013-02-01 00:49:00,
2013-01-31 16:54:00,48.4,45.9,30.34,SE,138,0.0,1.0,91,0.00,,,0.02,Wunderground v.1.15,2013-02-01 00:54:00,
2013-01-31 16:59:00,48.4,45.9,30.34,SE,138,0.0,1.0,91,0.00,,,0.02,Wunderground v.1.15,2013-02-01 00:59:00,
2013-01-31 17:04:00,48.4,45.9,30.34,SE,138,0.0,1.0,91,0.00,,,0.02,Wunderground v.1.15,2013-02-01 01:04:00,
2013-01-31 17:09:00,48.3,45.8,30.34,SE,138,0.0,1.0,91,0.00,,,0.02,Wunderground v.1.15,2013-02-01 01:09:00,
2013-01-31 17:14:00,48.2,45.7,30.34,SE,138,0.0,1.0,91,0.00,,,0.02,Wunderground v.1.15,2013-02-01 01:14:00,
2013-01-31 17:20:00,48.1,45.6,30.35,SE,138,0.0,1.0,91,0.00,,,0.02,Wunderground v.1.15,2013-02-01 01:20:00,
2013-01-31 17:25:00,48.0,45.5,30.34,SE,138,0.0,1.0,91,0.00,,,0.02,Wunderground v.1.15,2013-02-01 01:25:00,
2013-01-31 17:30:00,48.0,45.5,30.34,SE,138,0.0,1.0,91,0.00,,,0.02,Wunderground v.1.15,2013-02-01 01:30:00,
2013-01-31 17:36:00,47.9,45.4,30.34,SE,138,0.0,3.0,91,0.00,,,0.02,Wunderground v.1.15,2013-02-01 01:36:00,
2013-01-31 17:41:00,47.8,45.6,30.34,SE,138,0.0,1.0,92,0.00,,,0.02,Wunderground v.1.15,2013-02-01 01:41:00,
2013-01-31 17:46:00,47.8,45.6,30.34,SE,138,0.0,1.0,92,0.00,,,0.02,Wunderground v.1.15,2013-02-01 01:46:00,
2013-01-31 17:51:00,47.6,45.4,30.34,SE,138,0.0,1.0,92,0.00,,,0.02,Wunderground v.1.15,2013-02-01 01:51:00,
2013-01-31 17:56:00,47.5,45.6,30.34,SE,138,0.0,1.0,93,0.00,,,0.02,Wunderground v.1.15,2013-02-01 01:56:00,
2013-01-31 18:01:00,47.4,45.5,30.34,SE,138,0.0,1.0,93,0.00,,,0.02,Wunderground v.1.15,2013-02-01 02:01:00,
2013-01-31 18:07:00,47.3,45.4,30.34,SE,138,0.0,1.0,93,0.00,,,0.02,Wunderground v.1.15,2013-02-01 02:07:00,
2013-01-31 18:12:00,47.2,45.3,30.34,SE,138,0.0,0.0,93,0.00,,,0.02,Wunderground v.1.15,2013-02-01 02:12:00,
2013-01-31 18:17:00,47.1,45.5,30.34,SE,138,0.0,0.0,94,0.00,,,0.02,Wunderground v.1.15,2013-02-01 02:17:00,
2013-01-31 18:23:00,47.0,45.4,30.34,SE,138,0.0,0.0,94,0.00,,,0.02,Wunderground v.1.15,2013-02-01 02:23:00,
2013-01-31 18:28:00,46.9,45.3,30.34,SE,138,0.0,0.0,94,0.00,,,0.02,Wunderground v.1.15,2013-02-01 02:28:00,
2013-01-31 18:33:00,46.9,45.3,30.34,SE,138,0.0,0.0,94,0.00,,,0.03,Wunderground v.1.15,2013-02-01 02:33:00,
2013-01-31 18:38:00,46.8,45.2,30.34,SE,138,0.0,0.0,94,0.00,,,0.03,Wunderground v.1.15,2013-02-01 02:38:00,
2013-01-31 18:43:00,46.8,45.4,30.34,SE,138,0.0,0.0,95,0.00,,,0.03,Wunderground v.1.15,2013-02-01 02:43:00,
2013-01-31 18:48:00,46.8,45.4,30.34,SE,138,0.0,0.0,95,0.00,,,0.03,Wunderground v.1.15,2013-02-01 02:48:00,
2013-01-31 18:53:00,46.7,45.3,30.35,SE,138,0.0,0.0,95,0.00,,,0.03,Wunderground v.1.15,2013-02-01 02:53:00,
2013-01-31 18:59:00,46.7,45.3,30.35,SE,138,0.0,0.0,95,0.00,,,0.03,Wunderground v.1.15,2013-02-01 02:59:00,
2013-01-31 19:04:00,46.7,45.3,30.35,SE,138,0.0,3.0,95,0.00,,,0.03,Wunderground v.1.15,2013-02-01 03:04:00,
2013-01-31 19:09:00,46.7,45.3,30.35,SE,138,0.0,3.0,95,0.00,,,0.03,Wunderground v.1.15,2013-02-01 03:09:00,
2013-01-31 19:14:00,46.7,45.3,30.35,SE,138,0.0,3.0,95,0.00,,,0.03,Wunderground v.1.15,2013-02-01 03:14:00,
2013-01-31 19:19:00,46.7,45.3,30.35,SE,138,0.0,3.0,95,0.00,,,0.03,Wunderground v.1.15,2013-02-01 03:19:00,
2013-01-31 19:24:00,46.7,45.3,30.34,SE,138,0.0,3.0,95,0.00,,,0.03,Wunderground v.1.15,2013-02-01 03:24:00,
2013-01-31 19:30:00,46.7,45.3,30.34,SE,138,0.0,3.0,95,0.00,,,0.03,Wunderground v.1.15,2013-02-01 03:30:00,
2013-01-31 19:35:00,46.7,45.3,30.34,SE,138,0.0,3.0,95,0.00,,,0.04,Wunderground v.1.15,2013-02-01 03:35:00,
2013-01-31 19:40:00,46.8,45.4,30.35,SE,138,0.0,3.0,95,0.00,,,0.04,Wunderground v.1.15,2013-02-01 03:40:00,
2013-01-31 19:45:00,46.7,45.3,30.35,SE,138,0.0,3.0,95,0.00,,,0.04,Wunderground v.1.15,2013-02-01 03:45:00,
2013-01-31 19:51:00,46.7,45.3,30.35,SE,138,0.0,3.0,95,0.00,,,0.04,Wunderground v.1.15,2013-02-01 03:51:00,
2013-01-31 19:56:00,46.7,45.3,30.35,SE,138,0.0,3.0,95,0.00,,,0.04,Wunderground v.1.15,2013-02-01 03:56:00,
2013-01-31 20:01:00,46.6,45.2,30.35,SE,138,0.0,3.0,95,0.00,,,0.04,Wunderground v.1.15,2013-02-01 04:01:00,
2013-01-31 20:06:00,46.6,45.2,30.35,SE,138,0.0,3.0,95,0.00,,,0.04,Wunderground v.1.15,2013-02-01 04:06:00,
2013-01-31 20:11:00,46.5,45.1,30.34,SE,138,0.0,3.0,95,0.00,,,0.04,Wunderground v.1.15,2013-02-01 04:11:00,
2013-01-31 20:16:00,46.5,45.1,30.34,SE,138,0.0,3.0,95,0.00,,,0.04,Wunderground v.1.15,2013-02-01 04:16:00,
2013-01-31 20:21:00,46.5,45.1,30.34,SE,138,0.0,3.0,95,0.00,,,0.05,Wunderground v.1.15,2013-02-01 04:21:00,
2013-01-31 20:26:00,46.5,45.1,30.34,SE,138,0.0,3.0,95,0.00,,,0.05,Wunderground v.1.15,2013-02-01 04:26:00,
2013-01-31 20:32:00,46.4,45.0,30.34,SE,138,0.0,3.0,95,0.00,,,0.05,Wunderground v.1.15,2013-02-01 04:32:00,
2013-01-31 20:37:00,46.4,45.0,30.34,SE,138,0.0,3.0,95,0.00,,,0.05,Wunderground v.1.15,2013-02-01 04:37:00,
2013-01-31 20:42:00,46.4,45.0,30.34,SE,138,0.0,3.0,95,0.00,,,0.05,Wunderground v.1.15,2013-02-01 04:42:00,
2013-01-31 20:47:00,46.3,44.9,30.34,SE,138,0.0,3.0,95,0.00,,,0.05,Wunderground v.1.15,2013-02-01 04:47:00,
2013-01-31 20:52:00,46.3,44.9,30.35,SE,138,0.0,3.0,95,0.00,,,0.05,Wunderground v.1.15,2013-02-01 04:52:00,
2013-01-31 20:58:00,46.3,44.9,30.35,SE,138,0.0,3.0,95,0.00,,,0.05,Wunderground v.1.15,2013-02-01 04:58:00,
2013-01-31 21:00:00,46.3,44.9,30.35,SE,138,0.0,3.0,95,0.00,,,0.05,Wunderground v.1.15,2013-02-01 05:00:00,
2013-01-31 21:01:00,46.2,44.8,30.35,SE,138,0.0,3.0,95,0.00,,,0.05,Wunderground v.1.15,2013-02-01 05:01:00,
2013-01-31 21:03:00,46.2,44.8,30.35,SE,138,0.0,3.0,95,0.00,,,0.05,Wunderground v.1.15,2013-02-01 05:03:00,
2013-01-31 21:06:00,46.2,44.8,30.35,SE,138,0.0,3.0,95,0.00,,,0.05,Wunderground v.1.15,2013-02-01 05:06:00,
2013-01-31 21:11:00,46.2,44.8,30.35,SE,138,0.0,3.0,95,0.00,,,0.05,Wunderground v.1.15,2013-02-01 05:11:00,
2013-01-31 21:17:00,46.2,45.1,30.34,SE,138,0.0,3.0,96,0.00,,,0.05,Wunderground v.1.15,2013-02-01 05:17:00,
2013-01-31 21:22:00,46.1,45.0,30.35,SE,138,0.0,3.0,96,0.00,,,0.05,Wunderground v.1.15,2013-02-01 05:22:00,
2013-01-31 21:27:00,46.1,45.0,30.35,SE,138,0.0,3.0,96,0.00,,,0.05,Wunderground v.1.15,2013-02-01 05:27:00,
2013-01-31 21:32:00,46.1,45.0,30.35,SE,138,0.0,3.0,96,0.00,,,0.05,Wunderground v.1.15,2013-02-01 05:32:00,
2013-01-31 21:37:00,46.2,45.1,30.35,SE,138,0.0,3.0,96,0.00,,,0.05,Wunderground v.1.15,2013-02-01 05:37:00,
2013-01-31 21:42:00,46.3,45.2,30.35,SE,138,0.0,3.0,96,0.00,,,0.06,Wunderground v.1.15,2013-02-01 05:42:00,
2013-01-31 21:47:00,46.3,45.2,30.35,SE,138,0.0,3.0,96,0.00,,,0.06,Wunderground v.1.15,2013-02-01 05:47:00,
2013-01-31 21:53:00,46.3,45.2,30.35,SE,138,0.0,3.0,96,0.00,,,0.06,Wunderground v.1.15,2013-02-01 05:53:00,
2013-01-31 21:58:00,46.3,45.2,30.35,SE,138,0.0,3.0,96,0.00,,,0.06,Wunderground v.1.15,2013-02-01 05:58:00,
2013-01-31 22:03:00,46.3,45.2,30.35,SE,138,0.0,3.0,96,0.00,,,0.06,Wunderground v.1.15,2013-02-01 06:03:00,
2013-01-31 22:08:00,46.3,45.2,30.35,SE,138,0.0,3.0,96,0.00,,,0.06,Wunderground v.1.15,2013-02-01 06:08:00,
2013-01-31 22:13:00,46.3,45.2,30.35,SE,138,0.0,3.0,96,0.00,,,0.06,Wunderground v.1.15,2013-02-01 06:13:00,
2013-01-31 22:19:00,46.2,45.1,30.35,SE,138,0.0,3.0,96,0.00,,,0.06,Wunderground v.1.15,2013-02-01 06:19:00,
2013-01-31 22:24:00,46.2,45.1,30.35,SE,138,0.0,3.0,96,0.00,,,0.06,Wunderground v.1.15,2013-02-01 06:24:00,
2013-01-31 22:29:00,46.1,45.0,30.35,SE,138,0.0,3.0,96,0.00,,,0.06,Wunderground v.1.15,2013-02-01 06:29:00,
2013-01-31 22:34:00,46.1,45.0,30.35,SE,138,0.0,3.0,96,0.00,,,0.06,Wunderground v.1.15,2013-02-01 06:34:00,
2013-01-31 22:40:00,46.1,45.0,30.35,SE,138,0.0,3.0,96,0.00,,,0.06,Wunderground v.1.15,2013-02-01 06:40:00,
2013-01-31 22:45:00,46.1,45.0,30.35,SE,138,0.0,3.0,96,0.00,,,0.06,Wunderground v.1.15,2013-02-01 06:45:00,
2013-01-31 22:51:00,46.1,45.0,30.34,SE,138,0.0,3.0,96,0.00,,,0.06,Wunderground v.1.15,2013-02-01 06:51:00,